createdAt,value
2023-05-10T00:01:21.839Z,5.38
2023-05-10T00:04:28.184Z,5.93
2023-05-10T00:07:30.541Z,6.75
2023-05-10T00:10:32.629Z,6.30
2023-05-10T00:13:34.711Z,6.68
2023-05-10T00:16:36.375Z,6.03
2023-05-10T00:19:38.719Z,5.80
2023-05-10T00:22:40.438Z,5.75
2023-05-10T00:25:43.672Z,6.80
2023-05-10T00:28:45.273Z,6.05
2023-05-10T00:31:46.889Z,6.03
2023-05-10T00:34:48.975Z,6.55
2023-05-10T00:37:51.068Z,5.70
2023-05-10T00:40:53.143Z,5.78
2023-05-10T00:44:03.106Z,6.13
2023-05-10T00:47:05.640Z,5.33
2023-05-10T00:50:08.027Z,5.18
2023-05-10T00:53:10.199Z,5.05
2023-05-10T00:56:13.285Z,5.78
2023-05-10T00:59:17.801Z,6.57
2023-05-10T01:02:19.507Z,5.65
2023-05-10T01:05:21.276Z,5.53
2023-05-10T01:08:23.327Z,5.25
2023-05-10T01:11:26.381Z,5.35
2023-05-10T01:14:29.352Z,6.95
2023-05-10T01:17:32.585Z,4.80
2023-05-10T01:20:44.800Z,5.50
2023-05-10T01:24:20.540Z,5.35
2023-05-10T01:27:31.515Z,6.22
2023-05-10T01:30:45.791Z,6.10
2023-05-10T01:33:59.999Z,4.50
2023-05-10T01:37:19.463Z,4.27
2023-05-10T01:40:31.330Z,4.20
2023-05-10T01:43:58.070Z,4.35
2023-05-10T01:47:07.667Z,4.47
2023-05-10T01:50:18.649Z,4.43
2023-05-10T01:53:22.851Z,4.30
2023-05-10T01:56:28.951Z,4.63
2023-05-10T01:59:37.357Z,4.30
2023-05-10T02:02:43.266Z,4.80
2023-05-10T02:05:48.230Z,4.28
2023-05-10T02:08:52.597Z,4.50
2023-05-10T02:11:56.952Z,3.93
2023-05-10T02:15:03.095Z,4.53
2023-05-10T02:18:07.042Z,4.85
2023-05-10T02:21:09.850Z,4.07
2023-05-10T02:24:16.662Z,3.97
2023-05-10T02:27:20.157Z,3.67
2023-05-10T02:30:24.074Z,4.15
2023-05-10T02:33:27.466Z,3.95
2023-05-10T02:36:30.772Z,3.80
2023-05-10T02:39:33.754Z,5.03
2023-05-10T02:42:38.771Z,3.38
2023-05-10T02:45:42.537Z,3.70
2023-05-10T02:48:45.324Z,3.57
2023-05-10T02:51:52.478Z,3.05
2023-05-10T02:54:57.646Z,3.08
2023-05-10T02:58:02.154Z,3.75
2023-05-10T03:01:04.081Z,3.07
2023-05-10T03:04:07.278Z,3.03
2023-05-10T03:07:09.583Z,3.25
2023-05-10T03:10:12.677Z,3.40
2023-05-10T03:13:30.568Z,2.63
2023-05-10T03:16:59.867Z,3.17
2023-05-10T03:20:08.883Z,3.33
2023-05-10T03:23:17.374Z,3.15
2023-05-10T03:26:26.436Z,2.10
2023-05-10T03:29:34.877Z,3.13
2023-05-10T03:32:38.579Z,3.08
2023-05-10T03:35:41.324Z,3.53
2023-05-10T03:38:43.603Z,2.60
2023-05-10T03:41:46.087Z,2.78
2023-05-10T03:44:50.177Z,2.20
2023-05-10T03:47:52.315Z,2.00
2023-05-10T03:50:54.734Z,1.90
2023-05-10T03:53:56.685Z,2.35
2023-05-10T03:56:58.928Z,3.25
2023-05-10T04:00:02.608Z,1.47
2023-05-10T04:03:15.996Z,1.88
2023-05-10T04:06:18.436Z,1.75
2023-05-10T04:09:20.996Z,2.25
2023-05-10T04:12:23.257Z,1.77
2023-05-10T04:15:25.358Z,2.03
2023-05-10T04:18:27.073Z,2.10
2023-05-10T04:21:28.700Z,2.30
2023-05-10T04:24:30.774Z,1.83
2023-05-10T04:27:32.913Z,4.22
2023-05-10T04:30:34.981Z,1.85
2023-05-10T04:33:37.781Z,1.90
2023-05-10T04:36:39.828Z,2.00
2023-05-10T04:39:42.429Z,2.00
2023-05-10T04:42:44.790Z,2.10
2023-05-10T04:45:46.593Z,2.57
2023-05-10T04:48:48.309Z,2.15
2023-05-10T04:51:49.968Z,2.70
2023-05-10T04:54:52.372Z,2.03
2023-05-10T04:57:57.760Z,4.47
2023-05-10T05:01:08.056Z,2.92
2023-05-10T05:04:09.722Z,2.42
2023-05-10T05:07:11.755Z,1.75
2023-05-10T05:10:14.096Z,2.67
2023-05-10T05:13:16.492Z,2.10
2023-05-10T05:16:18.243Z,3.08
2023-05-10T05:19:19.939Z,2.53
2023-05-10T05:22:28.269Z,2.87
2023-05-10T05:25:30.373Z,2.92
2023-05-10T05:28:34.966Z,2.45
2023-05-10T05:31:37.215Z,2.60
2023-05-10T05:34:39.332Z,3.35
2023-05-10T05:37:41.620Z,2.97
2023-05-10T05:40:43.323Z,3.80
2023-05-10T05:43:44.973Z,3.20
2023-05-10T05:46:46.584Z,3.73
2023-05-10T05:49:48.211Z,3.17
2023-05-10T05:52:50.316Z,3.25
2023-05-10T05:55:56.737Z,3.30
2023-05-10T05:58:58.391Z,3.60
2023-05-10T06:02:00.188Z,3.65
2023-05-10T06:05:02.031Z,6.47
2023-05-10T06:08:03.735Z,3.83
2023-05-10T06:11:06.478Z,3.88
2023-05-10T06:14:09.013Z,7.50
2023-05-10T06:17:11.174Z,4.00
2023-05-10T06:20:13.387Z,4.00
2023-05-10T06:23:15.781Z,4.50
2023-05-10T06:26:17.878Z,4.22
2023-05-10T06:29:19.517Z,5.93
2023-05-10T06:32:21.211Z,3.58
2023-05-10T06:35:22.886Z,3.65
2023-05-10T06:38:24.838Z,4.00
2023-05-10T06:41:26.382Z,4.50
2023-05-10T06:44:28.236Z,4.30
2023-05-10T06:47:30.345Z,3.58
2023-05-10T06:50:32.038Z,4.77
2023-05-10T06:53:33.788Z,4.50
2023-05-10T06:56:35.408Z,5.30
2023-05-10T06:59:37.666Z,5.15
2023-05-10T07:02:39.387Z,4.33
2023-05-10T07:05:41.548Z,3.53
2023-05-10T07:08:43.255Z,4.05
2023-05-10T07:11:44.904Z,3.33
2023-05-10T07:14:46.838Z,4.38
2023-05-10T07:17:48.499Z,3.22
2023-05-10T07:20:50.900Z,3.10
2023-05-10T07:23:52.605Z,3.73
2023-05-10T07:26:54.651Z,5.80
2023-05-10T07:29:57.538Z,5.18
2023-05-10T07:33:00.230Z,4.05
2023-05-10T07:36:02.370Z,4.30
2023-05-10T07:39:04.676Z,2.70
2023-05-10T07:42:06.919Z,4.10
2023-05-10T07:45:09.595Z,3.50
2023-05-10T07:48:12.167Z,3.60
2023-05-10T07:51:13.882Z,3.03
2023-05-10T07:54:15.577Z,3.40
2023-05-10T07:57:18.595Z,3.17
2023-05-10T08:00:21.502Z,4.10
2023-05-10T08:03:23.276Z,4.00
2023-05-10T08:06:29.091Z,3.88
2023-05-10T08:09:30.750Z,4.73
2023-05-10T08:12:32.755Z,4.18
2023-05-10T08:15:34.390Z,4.43
2023-05-10T08:18:36.138Z,3.95
2023-05-10T08:21:38.326Z,3.80
2023-05-10T08:24:40.077Z,4.32
2023-05-10T08:27:42.147Z,2.85
2023-05-10T08:30:44.338Z,3.50
2023-05-10T08:33:46.010Z,3.60
2023-05-10T08:36:48.165Z,3.60
2023-05-10T08:39:50.404Z,3.58
2023-05-10T08:42:59.933Z,3.50
2023-05-10T08:46:04.119Z,3.90
2023-05-10T08:49:11.258Z,3.22
2023-05-10T08:52:16.003Z,4.13
2023-05-10T08:55:18.798Z,5.57
2023-05-10T08:58:21.829Z,4.28
2023-05-10T09:01:26.493Z,3.58
2023-05-10T09:04:30.451Z,3.80
2023-05-10T09:07:34.806Z,5.88
2023-05-10T09:10:39.479Z,5.13
2023-05-10T09:13:43.324Z,3.97
2023-05-10T09:16:45.264Z,3.47
2023-05-10T09:19:47.446Z,4.70
2023-05-10T09:22:49.216Z,4.53
2023-05-10T09:26:05.538Z,4.40
2023-05-10T09:29:10.508Z,4.70
2023-05-10T09:32:13.804Z,4.90
2023-05-10T09:35:18.422Z,6.88
2023-05-10T09:38:20.758Z,3.77
2023-05-10T09:41:24.372Z,4.40
2023-05-10T09:44:27.256Z,5.20
2023-05-10T09:47:28.918Z,4.20
2023-05-10T09:50:31.395Z,4.57
2023-05-10T09:53:33.472Z,4.63
2023-05-10T09:56:36.924Z,3.90
2023-05-10T09:59:44.259Z,3.70
2023-05-10T10:02:48.834Z,4.15
2023-05-10T10:05:50.712Z,4.43
2023-05-10T10:08:56.744Z,3.85
2023-05-10T10:12:01.085Z,6.22
2023-05-10T10:15:02.989Z,5.35
2023-05-10T10:18:06.720Z,4.97
2023-05-10T10:21:11.630Z,5.30
2023-05-10T10:24:13.276Z,5.25
2023-05-10T10:27:27.766Z,4.00
2023-05-10T10:30:52.230Z,4.07
2023-05-10T10:34:02.506Z,3.83
2023-05-10T10:37:07.942Z,4.45
2023-05-10T10:40:33.568Z,4.00
2023-05-10T10:43:36.989Z,4.63
2023-05-10T10:47:02.211Z,6.07
2023-05-10T10:50:07.192Z,5.15
2023-05-10T10:53:13.160Z,6.78
2023-05-10T10:56:16.287Z,5.20
2023-05-10T10:59:28.848Z,6.47
2023-05-10T11:02:40.185Z,6.35
2023-05-10T11:05:44.313Z,4.40
2023-05-10T11:08:46.112Z,4.75
2023-05-10T11:11:59.859Z,5.43
2023-05-10T11:15:01.981Z,3.92
2023-05-10T11:18:20.311Z,4.00
2023-05-10T11:21:22.078Z,3.77
2023-05-10T11:24:29.027Z,4.50
2023-05-10T11:27:31.114Z,4.85
2023-05-10T11:30:33.421Z,4.00
2023-05-10T11:33:49.705Z,4.47
2023-05-10T11:36:54.858Z,5.40
2023-05-10T11:39:57.002Z,4.78
2023-05-10T11:42:58.641Z,6.63
2023-05-10T11:46:01.203Z,5.53
2023-05-10T11:49:05.868Z,7.05
2023-05-10T11:52:08.819Z,4.32
2023-05-10T11:55:11.463Z,5.70
2023-05-10T11:58:13.235Z,3.97
2023-05-10T12:01:15.682Z,3.83
2023-05-10T12:04:17.798Z,4.20
2023-05-10T12:07:19.673Z,6.80
2023-05-10T12:10:27.434Z,5.22
2023-05-10T12:13:29.881Z,4.13
2023-05-10T12:16:31.850Z,5.10
2023-05-10T12:19:41.027Z,4.07
2023-05-10T12:22:46.482Z,5.13
2023-05-10T12:25:48.439Z,6.40
2023-05-10T12:28:50.087Z,6.00
2023-05-10T12:31:52.628Z,4.30
2023-05-10T12:34:54.394Z,3.67
2023-05-10T12:37:56.404Z,3.50
2023-05-10T12:41:00.236Z,4.45
2023-05-10T12:44:02.543Z,5.22
2023-05-10T12:47:04.666Z,5.03
2023-05-10T12:50:06.824Z,3.88
2023-05-10T12:53:09.482Z,4.68
2023-05-10T12:56:12.398Z,3.90
2023-05-10T12:59:14.536Z,4.78
2023-05-10T13:02:18.796Z,5.28
2023-05-10T13:05:20.979Z,4.10
2023-05-10T13:08:23.195Z,3.83
2023-05-10T13:11:25.124Z,3.70
2023-05-10T13:14:27.257Z,6.10
2023-05-10T13:17:30.636Z,4.57
2023-05-10T13:20:33.213Z,5.90
2023-05-10T13:23:36.030Z,4.85
2023-05-10T13:26:38.213Z,4.53
2023-05-10T13:29:39.755Z,4.20
2023-05-10T13:32:42.508Z,5.73
2023-05-10T13:35:44.837Z,4.47
2023-05-10T13:38:47.207Z,4.63
2023-05-10T13:41:49.460Z,4.13
2023-05-10T13:44:51.564Z,4.70
2023-05-10T13:47:53.233Z,5.38
2023-05-10T13:50:55.917Z,4.80
2023-05-10T13:53:57.525Z,5.32
2023-05-10T13:57:00.618Z,4.50
2023-05-10T14:00:03.250Z,4.75
2023-05-10T14:03:12.226Z,5.82
2023-05-10T14:06:14.721Z,4.68
2023-05-10T14:09:16.856Z,8.80
2023-05-10T14:12:18.461Z,5.82
2023-05-10T14:15:21.081Z,5.25
2023-05-10T14:18:23.525Z,3.75
2023-05-10T14:21:25.280Z,4.57
2023-05-10T14:24:27.354Z,3.45
2023-05-10T14:27:28.884Z,3.70
2023-05-10T14:30:31.551Z,4.10
2023-05-10T14:33:33.741Z,4.80
2023-05-10T14:36:35.354Z,9.07
2023-05-10T14:39:37.367Z,5.88
2023-05-10T14:42:38.959Z,4.05
2023-05-10T14:45:40.958Z,3.80
2023-05-10T14:48:42.634Z,5.03
2023-05-10T14:51:46.035Z,3.83
2023-05-10T14:54:48.639Z,4.33
2023-05-10T14:57:51.651Z,4.80
2023-05-10T15:00:54.181Z,4.38
2023-05-10T15:03:56.944Z,10.25
2023-05-10T15:07:00.630Z,4.70
2023-05-10T15:10:03.614Z,4.50
2023-05-10T15:13:06.310Z,8.45
2023-05-10T15:16:08.475Z,5.32
2023-05-10T15:19:11.327Z,6.20
2023-05-10T15:22:12.969Z,7.63
2023-05-10T15:25:15.994Z,6.00
2023-05-10T15:28:17.766Z,6.05
2023-05-10T15:31:19.877Z,5.57
2023-05-10T15:34:22.610Z,5.60
2023-05-10T15:37:25.415Z,5.55
2023-05-10T15:40:27.964Z,4.68
2023-05-10T15:43:29.658Z,4.10
2023-05-10T15:46:31.641Z,5.25
2023-05-10T15:49:33.962Z,5.80
2023-05-10T15:52:36.170Z,6.68
2023-05-10T15:55:37.776Z,9.45
2023-05-10T15:58:41.033Z,8.45
2023-05-10T16:01:43.266Z,4.97
2023-05-10T16:04:45.110Z,5.23
2023-05-10T16:07:47.614Z,4.38
2023-05-10T16:10:51.214Z,5.43
2023-05-10T16:13:53.744Z,5.72
2023-05-10T16:16:56.383Z,6.60
2023-05-10T16:19:58.236Z,5.93
2023-05-10T16:23:06.662Z,6.25
2023-05-10T16:26:09.345Z,6.83
2023-05-10T16:29:11.177Z,9.00
2023-05-10T16:32:12.834Z,7.50
2023-05-10T16:35:15.770Z,6.72
2023-05-10T16:38:17.960Z,11.53
2023-05-10T16:41:20.101Z,8.43
2023-05-10T16:44:25.686Z,7.38
2023-05-10T16:47:28.173Z,6.75
2023-05-10T16:50:30.444Z,6.28
2023-05-10T16:53:32.571Z,7.60
2023-05-10T16:56:34.149Z,6.78
2023-05-10T16:59:36.200Z,7.23
2023-05-10T17:02:39.416Z,4.82
2023-05-10T17:05:41.344Z,6.20
2023-05-10T17:08:44.486Z,5.70
2023-05-10T17:11:46.705Z,6.25
2023-05-10T17:14:48.396Z,6.80
2023-05-10T17:17:50.772Z,8.13
2023-05-10T17:20:52.514Z,7.27
2023-05-10T17:23:54.621Z,5.68
2023-05-10T17:26:57.400Z,5.25
2023-05-10T17:29:59.520Z,6.15
2023-05-10T17:33:02.159Z,7.10
2023-05-10T17:36:04.493Z,6.28
2023-05-10T17:39:06.371Z,8.40
2023-05-10T17:42:08.569Z,8.68
2023-05-10T17:45:10.854Z,8.05
2023-05-10T17:48:13.478Z,5.90
2023-05-10T17:51:15.677Z,6.30
2023-05-10T17:54:17.946Z,7.37
2023-05-10T17:57:20.792Z,6.35
2023-05-10T18:00:22.427Z,7.70
2023-05-10T18:03:24.681Z,7.75
2023-05-10T18:06:26.465Z,8.63
2023-05-10T18:09:29.503Z,6.25
2023-05-10T18:12:31.866Z,6.88
2023-05-10T18:15:34.086Z,5.37
2023-05-10T18:18:36.535Z,6.20
2023-05-10T18:21:39.096Z,6.75
2023-05-10T18:24:40.755Z,8.40
2023-05-10T18:27:43.464Z,6.80
2023-05-10T18:30:45.490Z,7.25
2023-05-10T18:33:47.126Z,9.10
2023-05-10T18:36:48.772Z,6.35
2023-05-10T18:39:50.795Z,6.38
2023-05-10T18:42:52.908Z,7.68
2023-05-10T18:45:55.015Z,7.95
2023-05-10T18:48:56.643Z,10.73
2023-05-10T18:52:01.152Z,11.52
2023-05-10T18:55:03.800Z,10.15
2023-05-10T18:58:05.940Z,10.00
2023-05-10T19:01:08.028Z,10.60
2023-05-10T19:04:10.206Z,9.25
2023-05-10T19:07:12.419Z,11.35
2023-05-10T19:10:14.587Z,11.93
2023-05-10T19:13:17.242Z,7.85
2023-05-10T19:16:20.329Z,6.68
2023-05-10T19:19:24.245Z,8.00
2023-05-10T19:22:44.993Z,7.28
2023-05-10T19:25:51.024Z,7.60
2023-05-10T19:28:53.710Z,6.75
2023-05-10T19:31:55.759Z,7.03
2023-05-10T19:34:58.150Z,7.32
2023-05-10T19:38:00.617Z,6.53
2023-05-10T19:41:02.338Z,6.97
2023-05-10T19:44:35.276Z,9.40
2023-05-10T19:47:37.604Z,11.10
2023-05-10T19:50:39.729Z,7.68
2023-05-10T19:53:44.730Z,7.78
2023-05-10T19:56:46.419Z,7.63
2023-05-10T19:59:48.602Z,5.75
2023-05-10T20:02:51.728Z,5.60
2023-05-10T20:05:53.964Z,5.72
2023-05-10T20:08:55.874Z,6.53
2023-05-10T20:11:58.312Z,6.10
2023-05-10T20:15:00.410Z,9.40
2023-05-10T20:18:04.108Z,8.23
2023-05-10T20:21:06.990Z,6.95
2023-05-10T20:24:09.788Z,6.57
2023-05-10T20:27:11.691Z,6.38
2023-05-10T20:30:13.323Z,7.05
2023-05-10T20:33:15.790Z,8.27
2023-05-10T20:36:17.926Z,6.90
2023-05-10T20:39:20.002Z,6.82
2023-05-10T20:42:22.685Z,6.17
2023-05-10T20:45:24.901Z,7.68
2023-05-10T20:48:26.502Z,6.97
2023-05-10T20:51:30.379Z,6.40
2023-05-10T20:54:32.412Z,6.07
2023-05-10T20:57:33.999Z,6.18
2023-05-10T21:00:35.598Z,6.30
2023-05-10T21:03:38.183Z,7.50
2023-05-10T21:06:39.759Z,6.82
2023-05-10T21:09:41.835Z,6.60
2023-05-10T21:12:43.430Z,9.30
2023-05-10T21:15:45.604Z,8.18
2023-05-10T21:18:47.780Z,6.75
2023-05-10T21:21:49.482Z,9.07
2023-05-10T21:24:51.567Z,9.88
2023-05-10T21:27:53.219Z,7.63
2023-05-10T21:30:55.899Z,7.57
2023-05-10T21:33:58.330Z,6.47
2023-05-10T21:37:00.061Z,6.57
2023-05-10T21:40:01.709Z,8.13
2023-05-10T21:43:04.770Z,6.67
2023-05-10T21:46:07.417Z,6.97
2023-05-10T21:49:09.535Z,6.93
2023-05-10T21:52:11.759Z,7.53
2023-05-10T21:55:13.990Z,8.93
2023-05-10T21:58:16.485Z,8.77
2023-05-10T22:01:18.950Z,7.57
2023-05-10T22:04:21.305Z,8.77
2023-05-10T22:07:22.929Z,7.50
2023-05-10T22:10:25.437Z,7.78
2023-05-10T22:13:27.095Z,10.77
2023-05-10T22:16:29.417Z,7.47
2023-05-10T22:19:31.448Z,8.75
2023-05-10T22:22:34.597Z,8.23
2023-05-10T22:25:36.194Z,6.90
2023-05-10T22:28:39.114Z,7.78
2023-05-10T22:31:41.334Z,7.35
2023-05-10T22:34:43.550Z,6.83
2023-05-10T22:37:46.375Z,10.20
2023-05-10T22:40:48.404Z,8.77
2023-05-10T22:43:50.467Z,7.65
2023-05-10T22:46:52.685Z,7.45
2023-05-10T22:49:56.106Z,6.53
2023-05-10T22:52:58.228Z,8.48
2023-05-10T22:56:00.626Z,7.13
2023-05-10T22:59:02.701Z,6.40
2023-05-10T23:02:04.969Z,7.28
2023-05-10T23:05:07.692Z,6.90
2023-05-10T23:08:09.585Z,6.53
2023-05-10T23:11:11.729Z,7.32
2023-05-10T23:14:14.053Z,6.93
2023-05-10T23:17:16.383Z,7.30
2023-05-10T23:20:18.226Z,8.07
2023-05-10T23:23:20.612Z,6.25
2023-05-10T23:26:22.791Z,8.37
2023-05-10T23:29:26.298Z,6.43
2023-05-10T23:32:28.016Z,6.18
2023-05-10T23:35:30.679Z,6.18
2023-05-10T23:38:32.253Z,6.30
2023-05-10T23:41:34.800Z,5.97
2023-05-10T23:44:36.850Z,7.00
2023-05-10T23:47:38.433Z,7.10
2023-05-10T23:50:44.985Z,5.85
2023-05-10T23:53:47.048Z,7.03
2023-05-10T23:56:51.320Z,5.70
2023-05-10T23:59:53.367Z,6.88
